createdAt,value
2023-03-29T00:00:22.035Z,101598.75
2023-03-29T00:03:24.728Z,101594.22
2023-03-29T00:06:31.153Z,101594.44
2023-03-29T00:09:33.809Z,101593.00
2023-03-29T00:12:37.730Z,101581.53
2023-03-29T00:15:40.356Z,101579.47
2023-03-29T00:18:42.887Z,101566.97
2023-03-29T00:21:45.486Z,101565.56
2023-03-29T00:24:49.163Z,101567.69
2023-03-29T00:27:53.146Z,101565.94
2023-03-29T00:31:04.397Z,101556.22
2023-03-29T00:34:07.219Z,101549.25
2023-03-29T00:37:09.984Z,101537.25
2023-03-29T00:40:13.293Z,101545.44
2023-03-29T00:43:17.384Z,101547.25
2023-03-29T00:46:20.022Z,101538.88
2023-03-29T00:49:22.631Z,101548.16
2023-03-29T00:52:30.040Z,101533.69
2023-03-29T00:55:34.929Z,101531.13
2023-03-29T00:58:40.347Z,101523.66
2023-03-29T01:01:46.466Z,101529.38
2023-03-29T01:04:50.746Z,101531.22
2023-03-29T01:07:57.947Z,101520.63
2023-03-29T01:11:01.817Z,101528.63
2023-03-29T01:14:06.529Z,101521.97
2023-03-29T01:17:09.147Z,101516.13
2023-03-29T01:20:14.217Z,101518.06
2023-03-29T01:23:31.442Z,101507.81
2023-03-29T01:26:40.425Z,101505.53
2023-03-29T01:29:45.513Z,101503.28
2023-03-29T01:32:50.481Z,101510.47
2023-03-29T01:35:57.437Z,101501.03
2023-03-29T01:39:00.573Z,101497.59
2023-03-29T01:42:09.732Z,101500.38
2023-03-29T01:45:18.494Z,101502.03
2023-03-29T01:48:23.932Z,101494.22
2023-03-29T01:51:27.297Z,101490.28
2023-03-29T01:54:31.743Z,101494.69
2023-03-29T01:57:34.312Z,101492.97
2023-03-29T02:00:38.555Z,101491.19
2023-03-29T02:03:43.184Z,101487.28
2023-03-29T02:06:45.759Z,101493.31
2023-03-29T02:09:48.875Z,101485.19
2023-03-29T02:12:51.956Z,101475.44
2023-03-29T02:15:56.574Z,101476.44
2023-03-29T02:18:59.441Z,101465.88
2023-03-29T02:22:03.877Z,101463.88
2023-03-29T02:25:08.464Z,101459.16
2023-03-29T02:28:11.028Z,101459.16
2023-03-29T02:31:17.942Z,101447.78
2023-03-29T02:34:22.293Z,101446.66
2023-03-29T02:37:26.565Z,101451.06
2023-03-29T02:40:29.116Z,101446.34
2023-03-29T02:43:31.699Z,101441.28
2023-03-29T02:46:37.761Z,101437.38
2023-03-29T02:49:40.514Z,101430.38
2023-03-29T02:52:46.119Z,101430.06
2023-03-29T02:55:48.877Z,101437.72
2023-03-29T02:58:51.443Z,101433.81
2023-03-29T03:01:55.411Z,101426.03
2023-03-29T03:04:59.125Z,101427.63
2023-03-29T03:08:02.594Z,101423.25
2023-03-29T03:11:05.376Z,101422.09
2023-03-29T03:14:07.912Z,101417.06
2023-03-29T03:17:11.829Z,101411.19
2023-03-29T03:20:14.687Z,101404.84
2023-03-29T03:23:17.638Z,101407.59
2023-03-29T03:26:20.207Z,101404.84
2023-03-29T03:29:23.208Z,101396.53
2023-03-29T03:32:27.123Z,101399.28
2023-03-29T03:35:29.668Z,101408.97
2023-03-29T03:38:32.309Z,101405.03
2023-03-29T03:41:34.937Z,101407.50
2023-03-29T03:44:37.905Z,101400.50
2023-03-29T03:47:42.197Z,101405.22
2023-03-29T03:50:49.561Z,101406.88
2023-03-29T03:53:52.089Z,101412.88
2023-03-29T03:56:55.114Z,101405.38
2023-03-29T03:59:58.901Z,101400.66
2023-03-29T04:03:06.050Z,101392.66
2023-03-29T04:06:09.640Z,101400.19
2023-03-29T04:09:12.793Z,101392.50
2023-03-29T04:12:15.720Z,101389.72
2023-03-29T04:15:20.156Z,101392.50
2023-03-29T04:18:24.441Z,101385.31
2023-03-29T04:21:27.143Z,101387.78
2023-03-29T04:24:29.675Z,101375.88
2023-03-29T04:27:32.255Z,101377.50
2023-03-29T04:30:34.846Z,101368.88
2023-03-29T04:33:38.860Z,101362.50
2023-03-29T04:36:41.426Z,101364.78
2023-03-29T04:39:44.725Z,101360.88
2023-03-29T04:42:47.306Z,101359.41
2023-03-29T04:45:50.064Z,101356.31
2023-03-29T04:48:54.027Z,101356.81
2023-03-29T04:51:57.010Z,101358.94
2023-03-29T04:54:59.543Z,101363.03
2023-03-29T04:58:02.604Z,101358.28
2023-03-29T05:01:05.721Z,101361.56
2023-03-29T05:04:12.561Z,101363.19
2023-03-29T05:07:15.605Z,101373.13
2023-03-29T05:10:18.376Z,101379.19
2023-03-29T05:13:20.928Z,101384.06
2023-03-29T05:16:24.454Z,101379.84
2023-03-29T05:19:28.419Z,101385.06
2023-03-29T05:22:31.417Z,101383.28
2023-03-29T05:25:34.306Z,101377.41
2023-03-29T05:28:36.873Z,101383.78
2023-03-29T05:31:39.527Z,101386.25
2023-03-29T05:34:43.558Z,101370.38
2023-03-29T05:37:47.120Z,101375.63
2023-03-29T05:40:49.877Z,101373.34
2023-03-29T05:43:52.490Z,101385.75
2023-03-29T05:46:55.073Z,101380.69
2023-03-29T05:49:59.232Z,101389.19
2023-03-29T05:53:01.750Z,101392.44
2023-03-29T05:56:04.956Z,101385.44
2023-03-29T05:59:08.324Z,101379.22
2023-03-29T06:02:11.576Z,101386.41
2023-03-29T06:05:16.014Z,101389.69
2023-03-29T06:08:18.618Z,101385.78
2023-03-29T06:11:22.227Z,101381.88
2023-03-29T06:14:24.899Z,101382.34
2023-03-29T06:17:27.927Z,101377.28
2023-03-29T06:20:31.842Z,101377.28
2023-03-29T06:23:34.701Z,101384.47
2023-03-29T06:26:37.458Z,101383.81
2023-03-29T06:29:40.227Z,101392.31
2023-03-29T06:32:42.924Z,101388.88
2023-03-29T06:35:47.497Z,101387.41
2023-03-29T06:38:50.052Z,101377.28
2023-03-29T06:41:52.610Z,101383.84
2023-03-29T06:44:55.140Z,101382.34
2023-03-29T06:47:57.726Z,101387.25
2023-03-29T06:51:01.790Z,101391.31
2023-03-29T06:54:05.345Z,101397.88
2023-03-29T06:57:07.956Z,101409.78
2023-03-29T07:00:18.205Z,101406.03
2023-03-29T07:03:24.551Z,101410.91
2023-03-29T07:06:28.451Z,101410.28
2023-03-29T07:09:31.371Z,101411.25
2023-03-29T07:12:34.193Z,101412.22
2023-03-29T07:15:37.039Z,101412.38
2023-03-29T07:18:41.257Z,101412.53
2023-03-29T07:21:45.182Z,101409.44
2023-03-29T07:24:49.276Z,101417.94
2023-03-29T07:27:52.915Z,101411.22
2023-03-29T07:31:03.145Z,101412.19
2023-03-29T07:34:10.590Z,101422.63
2023-03-29T07:37:14.502Z,101405.66
2023-03-29T07:40:19.528Z,101406.97
2023-03-29T07:43:22.269Z,101405.63
2023-03-29T07:46:24.871Z,101405.63
2023-03-29T07:49:27.498Z,101412.16
2023-03-29T07:52:31.501Z,101408.38
2023-03-29T07:55:34.036Z,101412.97
2023-03-29T07:58:37.641Z,101411.78
2023-03-29T08:01:41.112Z,101408.03
2023-03-29T08:04:43.778Z,101415.22
2023-03-29T08:07:47.816Z,101405.91
2023-03-29T08:10:50.359Z,101405.22
2023-03-29T08:13:52.999Z,101403.88
2023-03-29T08:16:55.688Z,101399.34
2023-03-29T08:19:58.297Z,101387.53
2023-03-29T08:23:02.175Z,101405.66
2023-03-29T08:26:04.904Z,101403.19
2023-03-29T08:29:08.288Z,101400.22
2023-03-29T08:32:11.436Z,101391.66
2023-03-29T08:35:14.005Z,101378.25
2023-03-29T08:38:17.892Z,101396.88
2023-03-29T08:41:27.773Z,101395.53
2023-03-29T08:44:43.841Z,101404.38
2023-03-29T08:47:49.931Z,101405.50
2023-03-29T08:50:53.729Z,101404.38
2023-03-29T08:53:58.826Z,101397.28
2023-03-29T08:57:02.967Z,101388.63
2023-03-29T09:00:07.222Z,101399.88
2023-03-29T09:03:11.336Z,101403.16
2023-03-29T09:06:14.096Z,101393.78
2023-03-29T09:09:19.718Z,101389.19
2023-03-29T09:12:27.313Z,101381.47
2023-03-29T09:15:31.019Z,101391.06
2023-03-29T09:18:37.761Z,101403.03
2023-03-29T09:21:43.251Z,101404.00
2023-03-29T09:24:54.081Z,101399.72
2023-03-29T09:27:59.181Z,101401.13
2023-03-29T09:31:05.068Z,101397.19
2023-03-29T09:34:10.665Z,101403.47
2023-03-29T09:37:15.077Z,101405.06
2023-03-29T09:40:20.914Z,101408.34
2023-03-29T09:43:29.691Z,101410.91
2023-03-29T09:46:37.348Z,101409.72
2023-03-29T09:49:41.652Z,101405.09
2023-03-29T09:52:44.255Z,101401.16
2023-03-29T09:55:50.385Z,101403.31
2023-03-29T09:58:53.109Z,101399.56
2023-03-29T10:01:55.739Z,101395.19
2023-03-29T10:05:00.558Z,101390.22
2023-03-29T10:08:19.889Z,101390.13
2023-03-29T10:11:26.917Z,101394.34
2023-03-29T10:14:33.253Z,101390.56
2023-03-29T10:17:39.305Z,101400.66
2023-03-29T10:20:41.871Z,101394.59
2023-03-29T10:23:44.882Z,101387.41
2023-03-29T10:26:49.315Z,101373.84
2023-03-29T10:29:51.960Z,101377.63
2023-03-29T10:32:57.844Z,101360.91
2023-03-29T10:36:00.999Z,101359.75
2023-03-29T10:39:05.991Z,101358.38
2023-03-29T10:42:11.508Z,101352.16
2023-03-29T10:45:20.331Z,101351.00
2023-03-29T10:48:25.941Z,101352.59
2023-03-29T10:51:30.111Z,101337.66
2023-03-29T10:54:32.675Z,101333.03
2023-03-29T10:57:39.981Z,101345.91
2023-03-29T11:00:44.447Z,101348.47
2023-03-29T11:04:08.568Z,101347.00
2023-03-29T11:07:23.286Z,101352.81
2023-03-29T11:10:32.768Z,101350.66
2023-03-29T11:13:39.498Z,101363.69
2023-03-29T11:16:44.605Z,101364.63
2023-03-29T11:19:56.420Z,101368.31
2023-03-29T11:23:03.783Z,101373.91
2023-03-29T11:26:11.210Z,101373.44
2023-03-29T11:29:16.098Z,101387.13
2023-03-29T11:32:21.520Z,101382.47
2023-03-29T11:35:31.271Z,101385.34
2023-03-29T11:38:36.103Z,101375.34
2023-03-29T11:41:39.459Z,101372.66
2023-03-29T11:44:43.813Z,101375.25
2023-03-29T11:47:46.599Z,101364.34
2023-03-29T11:50:51.710Z,101354.16
2023-03-29T11:53:57.616Z,101347.06
2023-03-29T11:57:02.869Z,101338.38
2023-03-29T12:00:08.707Z,101335.13
2023-03-29T12:03:13.814Z,101315.84
2023-03-29T12:06:18.440Z,101328.03
2023-03-29T12:09:26.512Z,101329.91
2023-03-29T12:12:30.518Z,101331.66
2023-03-29T12:15:36.399Z,101329.34
2023-03-29T12:18:40.865Z,101331.66
2023-03-29T12:21:43.429Z,101326.06
2023-03-29T12:24:46.158Z,101319.78
2023-03-29T12:27:53.755Z,101312.81
2023-03-29T12:31:00.798Z,101301.63
2023-03-29T12:34:34.967Z,101296.06
2023-03-29T12:37:42.341Z,101279.31
2023-03-29T12:40:46.041Z,101288.38
2023-03-29T12:43:48.641Z,101289.53
2023-03-29T12:46:54.369Z,101289.06
2023-03-29T12:49:57.536Z,101282.97
2023-03-29T12:53:04.419Z,101286.22
2023-03-29T12:56:13.346Z,101283.19
2023-03-29T12:59:26.958Z,101271.50
2023-03-29T13:02:39.188Z,101272.59
2023-03-29T13:05:41.964Z,101269.59
2023-03-29T13:08:44.916Z,101256.28
2023-03-29T13:11:52.830Z,101250.28
2023-03-29T13:14:56.570Z,101253.63
2023-03-29T13:18:04.895Z,101233.34
2023-03-29T13:21:13.274Z,101237.13
2023-03-29T13:24:26.439Z,101231.66
2023-03-29T13:27:34.132Z,101218.84
2023-03-29T13:30:44.119Z,101213.72
2023-03-29T13:33:53.069Z,101214.59
2023-03-29T13:37:00.759Z,101218.28
2023-03-29T13:40:05.237Z,101215.50
2023-03-29T13:43:10.284Z,101199.19
2023-03-29T13:46:24.007Z,101208.44
2023-03-29T13:49:28.799Z,101204.22
2023-03-29T13:52:32.454Z,101206.00
2023-03-29T13:55:38.488Z,101203.09
2023-03-29T13:58:43.821Z,101195.34
2023-03-29T14:01:50.411Z,101189.75
2023-03-29T14:04:54.369Z,101189.81
2023-03-29T14:07:56.980Z,101185.91
2023-03-29T14:11:01.717Z,101177.97
2023-03-29T14:14:05.738Z,101160.47
2023-03-29T14:17:08.416Z,101161.81
2023-03-29T14:20:16.571Z,101155.75
2023-03-29T14:23:21.111Z,101145.03
2023-03-29T14:26:24.277Z,101134.78
2023-03-29T14:29:31.624Z,101132.06
2023-03-29T14:32:34.039Z,101120.88
2023-03-29T14:35:38.137Z,101127.94
2023-03-29T14:38:40.976Z,101119.25
2023-03-29T14:41:47.016Z,101120.88
2023-03-29T14:44:49.954Z,101108.94
2023-03-29T14:47:52.888Z,101101.88
2023-03-29T14:50:56.821Z,101113.53
2023-03-29T14:53:59.513Z,101112.34
2023-03-29T14:57:06.489Z,101107.63
2023-03-29T15:00:19.792Z,101107.78
2023-03-29T15:03:26.064Z,101105.41
2023-03-29T15:06:30.161Z,101095.84
2023-03-29T15:09:34.182Z,101090.25
2023-03-29T15:12:36.763Z,101076.97
2023-03-29T15:15:39.431Z,101066.09
2023-03-29T15:18:42.310Z,101080.81
2023-03-29T15:21:47.756Z,101077.22
2023-03-29T15:24:50.759Z,101074.34
2023-03-29T15:27:56.182Z,101073.47
2023-03-29T15:31:07.932Z,101065.06
2023-03-29T15:34:12.435Z,101050.63
2023-03-29T15:37:16.625Z,101046.22
2023-03-29T15:40:20.145Z,101026.63
2023-03-29T15:43:23.505Z,101017.78
2023-03-29T15:46:26.166Z,101023.38
2023-03-29T15:49:28.900Z,101021.03
2023-03-29T15:52:32.773Z,101011.91
2023-03-29T15:55:35.301Z,101005.13
2023-03-29T15:58:37.836Z,100977.91
2023-03-29T16:01:41.652Z,100975.13
2023-03-29T16:04:44.344Z,100989.13
2023-03-29T16:07:48.292Z,100973.13
2023-03-29T16:10:50.856Z,100983.59
2023-03-29T16:13:53.492Z,100979.63
2023-03-29T16:16:58.831Z,100982.84
2023-03-29T16:20:01.596Z,100974.44
2023-03-29T16:23:09.255Z,100974.88
2023-03-29T16:26:12.709Z,100974.88
2023-03-29T16:29:17.316Z,100975.69
2023-03-29T16:32:20.217Z,100978.13
2023-03-29T16:35:25.830Z,100961.34
2023-03-29T16:38:29.700Z,100961.34
2023-03-29T16:41:32.552Z,100961.34
2023-03-29T16:44:35.227Z,100951.38
2023-03-29T16:47:39.307Z,100946.59
2023-03-29T16:50:42.016Z,100937.38
2023-03-29T16:53:47.656Z,100927.75
2023-03-29T16:56:50.617Z,100930.09
2023-03-29T16:59:53.180Z,100918.91
2023-03-29T17:02:56.013Z,100910.06
2023-03-29T17:05:59.166Z,100915.28
2023-03-29T17:09:03.240Z,100906.09
2023-03-29T17:12:05.823Z,100908.47
2023-03-29T17:15:09.153Z,100892.84
2023-03-29T17:18:12.130Z,100896.84
2023-03-29T17:21:14.796Z,100885.56
2023-03-29T17:24:18.723Z,100893.19
2023-03-29T17:27:21.580Z,100885.97
2023-03-29T17:30:24.108Z,100898.78
2023-03-29T17:33:26.790Z,100880.38
2023-03-29T17:36:33.647Z,100882.34
2023-03-29T17:39:37.797Z,100880.38
2023-03-29T17:42:40.557Z,100880.38
2023-03-29T17:45:43.096Z,100871.53
2023-03-29T17:48:46.933Z,100871.53
2023-03-29T17:51:49.469Z,100865.13
2023-03-29T17:54:53.332Z,100868.28
2023-03-29T17:57:56.289Z,100861.00
2023-03-29T18:00:58.868Z,100865.78
2023-03-29T18:04:01.582Z,100861.75
2023-03-29T18:07:04.176Z,100854.91
2023-03-29T18:10:09.158Z,100848.88
2023-03-29T18:13:13.839Z,100845.66
2023-03-29T18:16:16.449Z,100846.38
2023-03-29T18:19:18.989Z,100845.53
2023-03-29T18:22:21.603Z,100841.91
2023-03-29T18:25:25.573Z,100840.66
2023-03-29T18:28:28.150Z,100839.03
2023-03-29T18:31:31.031Z,100834.66
2023-03-29T18:34:34.254Z,100841.44
2023-03-29T18:37:37.018Z,100832.97
2023-03-29T18:40:40.911Z,100828.53
2023-03-29T18:43:44.145Z,100826.94
2023-03-29T18:46:47.960Z,100830.94
2023-03-29T18:49:50.475Z,100832.47
2023-03-29T18:52:53.002Z,100822.84
2023-03-29T18:55:58.295Z,100819.25
2023-03-29T18:59:05.026Z,100809.22
2023-03-29T19:02:07.727Z,100803.63
2023-03-29T19:05:10.738Z,100796.44
2023-03-29T19:08:13.303Z,100797.91
2023-03-29T19:11:17.181Z,100791.59
2023-03-29T19:14:23.443Z,100789.97
2023-03-29T19:17:27.235Z,100776.34
2023-03-29T19:20:29.955Z,100774.75
2023-03-29T19:23:32.539Z,100769.97
2023-03-29T19:26:36.487Z,100765.97
2023-03-29T19:29:39.105Z,100756.41
2023-03-29T19:32:41.770Z,100754.78
2023-03-29T19:35:44.624Z,100749.19
2023-03-29T19:38:47.220Z,100743.16
2023-03-29T19:41:51.293Z,100743.63
2023-03-29T19:44:53.861Z,100733.59
2023-03-29T19:47:56.561Z,100730.81
2023-03-29T19:51:01.837Z,100729.63
2023-03-29T19:54:06.512Z,100735.66
2023-03-29T19:57:10.510Z,100721.28
2023-03-29T20:00:14.936Z,100713.34
2023-03-29T20:03:17.759Z,100709.41
2023-03-29T20:06:20.883Z,100700.66
2023-03-29T20:09:23.444Z,100689.50
2023-03-29T20:12:27.434Z,100686.34
2023-03-29T20:15:30.034Z,100682.00
2023-03-29T20:18:32.629Z,100672.78
2023-03-29T20:21:37.124Z,100665.94
2023-03-29T20:24:39.643Z,100662.75
2023-03-29T20:27:43.692Z,100647.88
2023-03-29T20:30:50.966Z,100644.69
2023-03-29T20:33:53.703Z,100635.41
2023-03-29T20:37:00.589Z,100631.81
2023-03-29T20:40:05.234Z,100635.00
2023-03-29T20:43:13.000Z,100631.75
2023-03-29T20:46:18.155Z,100636.91
2023-03-29T20:49:26.158Z,100634.13
2023-03-29T20:52:28.743Z,100625.28
2023-03-29T20:55:33.022Z,100631.66
2023-03-29T20:58:41.789Z,100626.06
2023-03-29T21:01:44.387Z,100617.69
2023-03-29T21:04:50.447Z,100595.69
2023-03-29T21:07:54.497Z,100588.09
2023-03-29T21:10:57.176Z,100590.91
2023-03-29T21:14:01.284Z,100590.91
2023-03-29T21:17:03.895Z,100577.72
2023-03-29T21:20:09.872Z,100577.34
2023-03-29T21:23:14.426Z,100574.97
2023-03-29T21:26:16.980Z,100573.41
2023-03-29T21:29:20.900Z,100555.09
2023-03-29T21:32:23.486Z,100561.53
2023-03-29T21:35:26.084Z,100569.16
2023-03-29T21:38:28.724Z,100553.22
2023-03-29T21:41:31.357Z,100559.25
2023-03-29T21:44:35.241Z,100572.47
2023-03-29T21:47:37.828Z,100579.31
2023-03-29T21:50:40.440Z,100579.72
2023-03-29T21:53:43.036Z,100572.66
2023-03-29T21:56:47.620Z,100574.78
2023-03-29T21:59:51.575Z,100571.75
2023-03-29T22:02:54.218Z,100569.50
2023-03-29T22:05:58.144Z,100558.00
2023-03-29T22:09:00.722Z,100559.25
2023-03-29T22:12:03.381Z,100551.31
2023-03-29T22:15:08.483Z,100538.97
2023-03-29T22:18:12.383Z,100537.41
2023-03-29T22:21:16.065Z,100540.28
2023-03-29T22:24:19.449Z,100548.31
2023-03-29T22:27:22.732Z,100537.16
2023-03-29T22:30:27.161Z,100534.38
2023-03-29T22:33:29.719Z,100533.13
2023-03-29T22:36:32.368Z,100538.72
2023-03-29T22:39:35.561Z,100529.91
2023-03-29T22:42:38.087Z,100535.09
2023-03-29T22:45:42.009Z,100526.28
2023-03-29T22:48:44.673Z,100527.91
2023-03-29T22:51:47.241Z,100531.44
2023-03-29T22:54:49.783Z,100529.06
2023-03-29T22:57:52.612Z,100522.28
2023-03-29T23:00:56.870Z,100525.09
2023-03-29T23:03:59.438Z,100530.25
2023-03-29T23:07:02.217Z,100518.69
2023-03-29T23:10:06.388Z,100513.06
2023-03-29T23:13:09.450Z,100515.88
2023-03-29T23:16:13.382Z,100519.03
2023-03-29T23:19:16.052Z,100521.03
2023-03-29T23:22:18.629Z,100510.59
2023-03-29T23:25:21.207Z,100513.41
2023-03-29T23:28:24.856Z,100521.78
2023-03-29T23:31:28.765Z,100524.19
2023-03-29T23:34:31.304Z,100517.78
2023-03-29T23:37:33.917Z,100513.00
2023-03-29T23:40:36.451Z,100523.41
2023-03-29T23:43:40.356Z,100517.06
2023-03-29T23:46:44.368Z,100513.88
2023-03-29T23:49:47.735Z,100526.31
2023-03-29T23:52:51.403Z,100525.16
2023-03-29T23:55:54.053Z,100513.16
2023-03-29T23:58:56.649Z,100506.00
